createdAt,value
2023-01-03T00:01:17.005Z,1.85
2023-01-03T00:03:45.501Z,2.80
2023-01-03T00:06:17.654Z,1.95
2023-01-03T00:08:46.076Z,2.28
2023-01-03T00:11:16.968Z,1.95
2023-01-03T00:13:44.517Z,2.20
2023-01-03T00:16:19.575Z,1.77
2023-01-03T00:18:48.259Z,1.77
2023-01-03T00:21:16.635Z,1.92
2023-01-03T00:23:44.999Z,1.70
2023-01-03T00:26:14.281Z,1.83
2023-01-03T00:28:44.176Z,2.00
2023-01-03T00:31:13.653Z,1.95
2023-01-03T00:33:42.246Z,2.20
2023-01-03T00:36:11.686Z,1.65
2023-01-03T00:38:40.074Z,2.00
2023-01-03T00:41:09.876Z,1.83
2023-01-03T00:43:39.160Z,2.28
2023-01-03T00:46:09.624Z,1.77
2023-01-03T00:48:38.308Z,1.80
2023-01-03T00:51:08.287Z,1.98
2023-01-03T00:56:06.262Z,1.80
2023-01-03T00:58:35.579Z,1.70
2023-01-03T01:01:08.639Z,1.73
2023-01-03T01:03:38.340Z,2.05
2023-01-03T01:06:13.852Z,2.10
2023-01-03T01:08:42.490Z,2.00
2023-01-03T01:11:10.975Z,1.60
2023-01-03T01:13:39.812Z,2.00
2023-01-03T01:16:12.195Z,2.25
2023-01-03T01:18:41.567Z,1.95
2023-01-03T01:21:13.355Z,2.10
2023-01-03T01:23:43.225Z,2.58
2023-01-03T01:26:14.261Z,2.50
2023-01-03T01:28:43.288Z,1.85
2023-01-03T01:31:16.517Z,2.13
2023-01-03T01:33:45.602Z,1.90
2023-01-03T01:36:17.760Z,2.28
2023-01-03T01:38:46.963Z,2.00
2023-01-03T01:41:38.028Z,2.03
2023-01-03T01:44:24.787Z,2.00
2023-01-03T01:46:54.863Z,2.65
2023-01-03T01:51:53.002Z,2.47
2023-01-03T01:54:22.048Z,1.98
2023-01-03T01:56:54.362Z,1.83
2023-01-03T01:59:23.108Z,2.13
2023-01-03T02:01:52.867Z,1.70
2023-01-03T02:04:28.165Z,1.95
2023-01-03T02:06:58.024Z,2.33
2023-01-03T02:09:26.193Z,2.20
2023-01-03T02:12:12.363Z,2.10
2023-01-03T02:14:56.190Z,1.77
2023-01-03T02:17:34.656Z,1.92
2023-01-03T02:20:15.081Z,2.17
2023-01-03T02:23:12.728Z,2.10
2023-01-03T02:26:08.576Z,2.30
2023-01-03T02:29:05.751Z,2.03
2023-01-03T02:31:43.241Z,2.40
2023-01-03T02:34:21.388Z,2.63
2023-01-03T02:36:59.467Z,2.28
2023-01-03T02:39:34.134Z,2.38
2023-01-03T02:42:27.473Z,2.28
2023-01-03T02:45:05.243Z,2.85
2023-01-03T02:47:41.648Z,2.15
2023-01-03T02:50:14.335Z,2.38
2023-01-03T02:52:45.521Z,2.78
2023-01-03T02:55:18.788Z,2.40
2023-01-03T02:57:51.335Z,2.00
2023-01-03T03:00:22.861Z,2.30
2023-01-03T03:02:55.939Z,2.28
2023-01-03T03:05:26.562Z,2.20
2023-01-03T03:07:54.957Z,2.38
2023-01-03T03:10:41.986Z,2.17
2023-01-03T03:13:19.413Z,2.20
2023-01-03T03:15:53.396Z,2.00
2023-01-03T03:18:26.857Z,2.20
2023-01-03T03:21:16.691Z,1.95
2023-01-03T03:24:05.705Z,1.75
2023-01-03T03:26:40.157Z,1.95
2023-01-03T03:29:11.946Z,2.28
2023-01-03T03:31:42.709Z,2.20
2023-01-03T03:34:17.868Z,2.28
2023-01-03T03:36:52.414Z,2.00
2023-01-03T03:39:38.376Z,2.00
2023-01-03T03:42:36.938Z,1.92
2023-01-03T03:45:13.947Z,2.30
2023-01-03T03:47:48.650Z,2.33
2023-01-03T03:50:23.992Z,2.00
2023-01-03T03:52:56.215Z,2.20
2023-01-03T03:55:29.275Z,1.90
2023-01-03T03:58:01.991Z,2.20
2023-01-03T04:00:34.785Z,1.98
2023-01-03T04:03:05.280Z,1.90
2023-01-03T04:05:38.615Z,2.35
2023-01-03T04:08:07.247Z,1.80
2023-01-03T04:10:37.947Z,2.05
2023-01-03T04:13:06.754Z,1.88
2023-01-03T04:15:35.156Z,1.50
2023-01-03T04:18:03.591Z,2.25
2023-01-03T04:20:32.007Z,1.42
2023-01-03T04:23:01.477Z,1.75
2023-01-03T04:25:29.613Z,1.80
2023-01-03T04:27:57.995Z,1.58
2023-01-03T04:30:26.466Z,1.67
2023-01-03T04:32:54.848Z,1.45
2023-01-03T04:35:23.255Z,1.50
2023-01-03T04:37:51.634Z,1.40
2023-01-03T04:40:21.130Z,1.33
2023-01-03T04:43:07.244Z,1.48
2023-01-03T04:45:36.132Z,1.70
2023-01-03T04:48:04.524Z,1.23
2023-01-03T04:50:33.691Z,1.10
2023-01-03T04:53:01.839Z,1.23
2023-01-03T04:55:31.398Z,1.25
2023-01-03T04:57:59.601Z,1.30
2023-01-03T05:00:28.060Z,1.38
2023-01-03T05:02:56.461Z,1.40
2023-01-03T05:05:24.885Z,1.20
2023-01-03T05:07:53.250Z,1.17
2023-01-03T05:10:21.658Z,1.00
2023-01-03T05:12:59.989Z,1.25
2023-01-03T05:15:28.646Z,1.20
2023-01-03T05:17:57.113Z,1.27
2023-01-03T05:20:43.816Z,1.10
2023-01-03T05:23:31.327Z,0.93
2023-01-03T05:25:59.960Z,1.30
2023-01-03T05:28:29.841Z,1.23
2023-01-03T05:30:59.391Z,0.90
2023-01-03T05:33:27.589Z,0.88
2023-01-03T05:35:56.109Z,1.10
2023-01-03T05:38:24.525Z,1.00
2023-01-03T05:40:52.942Z,1.00
2023-01-03T05:43:21.419Z,1.00
2023-01-03T05:45:53.273Z,0.85
2023-01-03T05:48:22.746Z,1.00
2023-01-03T05:50:51.075Z,0.93
2023-01-03T05:53:19.700Z,0.95
2023-01-03T05:55:48.088Z,1.20
2023-01-03T05:58:16.452Z,0.95
2023-01-03T06:00:45.221Z,1.00
2023-01-03T06:03:15.166Z,0.80
2023-01-03T06:05:49.846Z,0.85
2023-01-03T06:08:18.889Z,0.90
2023-01-03T06:10:47.757Z,0.98
2023-01-03T06:13:16.195Z,1.10
2023-01-03T06:16:04.584Z,0.90
2023-01-03T06:18:34.763Z,1.20
2023-01-03T06:21:04.619Z,1.00
2023-01-03T06:23:33.093Z,1.00
2023-01-03T06:26:04.742Z,0.70
2023-01-03T06:28:33.104Z,0.88
2023-01-03T06:31:01.370Z,1.10
2023-01-03T06:33:30.035Z,1.00
2023-01-03T06:36:03.510Z,1.10
2023-01-03T06:38:31.888Z,0.80
2023-01-03T06:41:00.295Z,0.80
2023-01-03T06:43:28.704Z,0.70
2023-01-03T06:46:15.017Z,0.90
2023-01-03T06:49:01.015Z,0.80
2023-01-03T06:51:47.819Z,1.17
2023-01-03T06:54:21.950Z,0.85
2023-01-03T06:56:50.710Z,1.05
2023-01-03T06:59:19.120Z,1.10
2023-01-03T07:01:47.960Z,0.73
2023-01-03T07:04:17.312Z,0.85
2023-01-03T07:06:47.005Z,3.97
2023-01-03T07:09:15.645Z,4.28
2023-01-03T07:11:44.637Z,4.57
2023-01-03T07:14:12.644Z,4.80
2023-01-03T07:16:42.923Z,5.55
2023-01-03T07:19:14.693Z,5.93
2023-01-03T07:21:43.152Z,6.32
2023-01-03T07:24:14.550Z,6.32
2023-01-03T07:26:43.241Z,5.40
2023-01-03T07:29:12.159Z,5.65
2023-01-03T07:31:41.637Z,5.75
2023-01-03T07:34:10.593Z,5.32
2023-01-03T07:36:39.030Z,4.32
2023-01-03T07:39:07.400Z,4.55
2023-01-03T07:41:54.047Z,4.20
2023-01-03T07:44:22.424Z,3.75
2023-01-03T07:46:50.940Z,3.40
2023-01-03T07:49:19.374Z,3.10
2023-01-03T07:51:47.769Z,3.33
2023-01-03T07:54:16.239Z,3.13
2023-01-03T07:56:45.733Z,2.83
2023-01-03T07:59:14.418Z,2.80
2023-01-03T08:01:42.955Z,2.70
2023-01-03T08:04:11.872Z,2.40
2023-01-03T08:06:40.454Z,2.47
2023-01-03T08:09:26.625Z,2.30
2023-01-03T08:12:13.913Z,2.20
2023-01-03T08:14:42.670Z,2.38
2023-01-03T08:17:11.239Z,2.70
2023-01-03T08:19:45.353Z,2.47
2023-01-03T08:22:14.303Z,2.20
2023-01-03T08:24:43.416Z,2.08
2023-01-03T08:27:12.908Z,2.20
2023-01-03T08:29:41.406Z,2.53
2023-01-03T08:32:09.876Z,2.00
2023-01-03T08:34:41.945Z,2.40
2023-01-03T08:37:12.331Z,2.15
2023-01-03T08:39:44.603Z,2.20
2023-01-03T08:42:16.552Z,1.80
2023-01-03T08:44:45.296Z,1.80
2023-01-03T08:47:14.902Z,1.80
2023-01-03T08:49:43.803Z,1.92
2023-01-03T08:52:12.174Z,1.83
2023-01-03T08:54:40.975Z,2.10
2023-01-03T08:57:09.367Z,2.72
2023-01-03T08:59:39.808Z,4.03
2023-01-03T09:02:08.280Z,3.95
2023-01-03T09:04:36.798Z,4.00
2023-01-03T09:07:05.306Z,3.58
2023-01-03T09:09:33.746Z,3.25
2023-01-03T09:12:02.122Z,3.05
2023-01-03T09:14:31.544Z,3.95
2023-01-03T09:17:01.045Z,6.50
2023-01-03T09:19:29.197Z,6.20
2023-01-03T09:21:57.913Z,5.57
2023-01-03T09:24:26.297Z,5.32
2023-01-03T09:26:55.222Z,5.30
2023-01-03T09:29:23.598Z,5.03
2023-01-03T09:31:52.005Z,5.20
2023-01-03T09:34:21.944Z,4.00
2023-01-03T09:36:50.078Z,3.95
2023-01-03T09:39:18.499Z,3.70
2023-01-03T09:42:06.655Z,3.65
2023-01-03T09:44:34.987Z,2.75
2023-01-03T09:47:04.481Z,2.70
2023-01-03T09:49:36.850Z,2.40
2023-01-03T09:52:22.765Z,3.22
2023-01-03T09:55:08.326Z,2.33
2023-01-03T09:57:55.354Z,2.40
2023-01-03T10:00:47.725Z,3.30
2023-01-03T10:03:51.063Z,3.00
2023-01-03T10:06:34.273Z,2.85
2023-01-03T10:09:14.254Z,2.40
2023-01-03T10:14:32.605Z,1.98
2023-01-03T10:17:07.361Z,1.70
2023-01-03T10:20:11.109Z,2.00
2023-01-03T10:22:41.423Z,2.33
2023-01-03T10:25:13.823Z,1.80
2023-01-03T10:27:47.570Z,1.80
2023-01-03T10:30:18.647Z,2.05
2023-01-03T10:33:24.448Z,2.20
2023-01-03T10:35:53.206Z,2.00
2023-01-03T10:38:23.367Z,1.60
2023-01-03T10:40:54.216Z,1.85
2023-01-03T10:43:31.680Z,1.63
2023-01-03T10:46:04.653Z,1.60
2023-01-03T10:49:00.297Z,1.85
2023-01-03T10:51:34.518Z,1.45
2023-01-03T10:54:14.436Z,1.70
2023-01-03T10:56:42.621Z,1.63
2023-01-03T10:59:17.309Z,1.75
2023-01-03T11:02:00.052Z,1.42
2023-01-03T11:04:28.937Z,1.70
2023-01-03T11:07:05.104Z,1.50
2023-01-03T11:09:50.595Z,1.15
2023-01-03T11:12:28.276Z,1.63
2023-01-03T11:14:58.289Z,1.48
2023-01-03T11:17:28.457Z,1.40
2023-01-03T11:19:57.724Z,1.10
2023-01-03T11:22:38.106Z,1.30
2023-01-03T11:25:21.632Z,1.30
2023-01-03T11:28:30.296Z,1.20
2023-01-03T11:31:06.054Z,1.20
2023-01-03T11:33:48.511Z,0.85
2023-01-03T11:36:31.351Z,1.08
2023-01-03T11:39:15.406Z,1.33
2023-01-03T11:42:05.665Z,1.20
2023-01-03T11:45:03.497Z,1.25
2023-01-03T11:47:38.222Z,1.30
2023-01-03T11:50:19.796Z,1.23
2023-01-03T11:52:54.563Z,1.10
2023-01-03T11:55:47.261Z,0.88
2023-01-03T11:58:52.596Z,1.02
2023-01-03T12:01:38.755Z,1.15
2023-01-03T12:04:27.750Z,0.90
2023-01-03T12:07:47.184Z,1.17
2023-01-03T12:10:12.047Z,1.08
2023-01-03T12:12:59.327Z,0.98
2023-01-03T12:15:37.841Z,0.90
2023-01-03T12:18:17.681Z,1.00
2023-01-03T12:23:30.661Z,0.90
2023-01-03T12:26:02.239Z,0.80
2023-01-03T12:28:36.348Z,0.80
2023-01-03T12:31:13.033Z,0.80
2023-01-03T12:33:46.446Z,0.80
2023-01-03T12:36:25.715Z,0.70
2023-01-03T12:39:04.257Z,1.05
2023-01-03T12:41:39.547Z,0.60
2023-01-03T12:44:16.577Z,0.60
2023-01-03T12:46:50.398Z,0.77
2023-01-03T12:49:25.445Z,0.77
2023-01-03T12:51:54.036Z,0.88
2023-01-03T12:54:32.584Z,0.60
2023-01-03T12:57:32.921Z,0.50
2023-01-03T13:00:23.821Z,0.73
2023-01-03T13:02:58.725Z,0.70
2023-01-03T13:05:38.959Z,0.68
2023-01-03T13:08:13.341Z,0.80
2023-01-03T13:10:48.392Z,0.68
2023-01-03T13:13:19.200Z,0.98
2023-01-03T13:15:48.706Z,0.43
2023-01-03T13:18:34.114Z,0.65
2023-01-03T13:21:02.276Z,0.63
2023-01-03T13:23:36.265Z,0.70
2023-01-03T13:26:25.938Z,0.70
2023-01-03T13:29:14.961Z,0.55
2023-01-03T13:31:43.230Z,0.70
2023-01-03T13:34:31.087Z,0.77
2023-01-03T13:37:17.855Z,0.40
2023-01-03T13:40:02.735Z,0.80
2023-01-03T13:42:36.298Z,0.70
2023-01-03T13:45:37.764Z,0.75
2023-01-03T13:48:16.485Z,0.70
2023-01-03T13:51:30.345Z,0.50
2023-01-03T13:54:04.110Z,0.45
2023-01-03T13:56:53.708Z,0.60
2023-01-03T13:59:32.485Z,0.40
2023-01-03T14:02:31.581Z,0.70
2023-01-03T14:05:21.904Z,0.50
2023-01-03T14:08:17.283Z,0.50
2023-01-03T14:11:12.580Z,0.50
2023-01-03T14:13:44.727Z,0.50
2023-01-03T14:16:24.752Z,0.60
2023-01-03T14:19:08.054Z,0.30
2023-01-03T14:21:43.305Z,0.60
2023-01-03T14:24:21.956Z,0.60
2023-01-03T14:26:50.295Z,0.47
2023-01-03T14:29:21.969Z,0.60
2023-01-03T14:31:53.541Z,0.50
2023-01-03T14:34:35.455Z,0.50
2023-01-03T14:37:06.716Z,0.50
2023-01-03T14:42:05.134Z,0.60
2023-01-03T14:47:05.050Z,0.60
2023-01-03T14:49:41.450Z,0.50
2023-01-03T14:52:15.278Z,0.47
2023-01-03T14:54:48.359Z,0.50
2023-01-03T14:57:20.528Z,0.55
2023-01-03T14:59:49.959Z,0.63
2023-01-03T15:02:20.021Z,0.40
2023-01-03T15:04:52.725Z,0.50
2023-01-03T15:07:33.541Z,0.40
2023-01-03T15:10:18.774Z,0.57
2023-01-03T15:12:50.864Z,0.63
2023-01-03T15:15:24.580Z,0.60
2023-01-03T15:17:56.420Z,0.60
2023-01-03T15:20:32.049Z,0.50
2023-01-03T15:23:00.266Z,0.60
2023-01-03T15:25:34.707Z,0.60
2023-01-03T15:28:24.945Z,0.57
2023-01-03T15:30:54.011Z,0.38
2023-01-03T15:33:33.323Z,0.40
2023-01-03T15:36:06.248Z,0.40
2023-01-03T15:38:37.762Z,0.60
2023-01-03T15:41:17.485Z,0.60
2023-01-03T15:43:44.622Z,0.38
2023-01-03T15:46:16.052Z,0.45
2023-01-03T15:48:50.364Z,0.40
2023-01-03T15:51:18.728Z,0.50
2023-01-03T15:53:47.078Z,0.50
2023-01-03T15:56:21.054Z,0.55
2023-01-03T15:58:50.675Z,0.47
2023-01-03T16:01:19.815Z,0.50
2023-01-03T16:03:49.619Z,0.57
2023-01-03T16:08:46.529Z,0.50
2023-01-03T16:11:19.873Z,0.47
2023-01-03T16:13:52.609Z,0.50
2023-01-03T16:16:26.557Z,0.60
2023-01-03T16:18:56.988Z,0.65
2023-01-03T16:21:25.913Z,0.40
2023-01-03T16:23:54.374Z,0.35
2023-01-03T16:26:22.767Z,0.40
2023-01-03T16:28:52.305Z,0.57
2023-01-03T16:31:24.394Z,0.40
2023-01-03T16:33:53.038Z,0.57
2023-01-03T16:36:30.530Z,0.30
2023-01-03T16:38:59.062Z,0.40
2023-01-03T16:41:27.495Z,0.45
2023-01-03T16:43:57.016Z,0.40
2023-01-03T16:46:27.582Z,0.30
2023-01-03T16:48:57.977Z,0.50
2023-01-03T16:51:28.489Z,0.60
2023-01-03T16:53:58.161Z,0.57
2023-01-03T16:56:26.282Z,0.77
2023-01-03T16:58:56.133Z,0.60
2023-01-03T17:01:24.498Z,0.55
2023-01-03T17:03:53.047Z,0.43
2023-01-03T17:06:37.089Z,0.50
2023-01-03T17:09:10.066Z,0.47
2023-01-03T17:11:38.281Z,0.50
2023-01-03T17:14:08.206Z,0.50
2023-01-03T17:19:04.296Z,0.50
2023-01-03T17:21:34.919Z,0.50
2023-01-03T17:24:06.993Z,0.50
2023-01-03T17:26:36.840Z,0.68
2023-01-03T17:29:08.228Z,0.50
2023-01-03T17:31:36.404Z,0.50
2023-01-03T17:34:20.172Z,0.40
2023-01-03T17:36:49.011Z,0.65
2023-01-03T17:39:17.685Z,0.52
2023-01-03T17:42:03.190Z,0.70
2023-01-03T17:44:32.691Z,0.52
2023-01-03T17:47:20.376Z,1.02
2023-01-03T17:49:48.758Z,0.80
2023-01-03T17:52:24.306Z,0.80
2023-01-03T17:54:53.157Z,0.75
2023-01-03T17:57:21.574Z,0.80
2023-01-03T17:59:51.340Z,0.95
2023-01-03T18:02:22.621Z,0.80
2023-01-03T18:05:15.054Z,0.90
2023-01-03T18:07:40.002Z,0.63
2023-01-03T18:10:09.648Z,2.50
2023-01-03T18:12:37.723Z,2.35
2023-01-03T18:15:15.494Z,1.88
2023-01-03T18:17:43.578Z,1.48
2023-01-03T18:20:14.633Z,1.60
2023-01-03T18:22:43.285Z,1.77
2023-01-03T18:25:22.099Z,1.63
2023-01-03T18:27:54.813Z,1.90
2023-01-03T18:30:24.543Z,1.60
2023-01-03T18:32:52.954Z,1.42
2023-01-03T18:35:28.413Z,1.50
2023-01-03T18:38:01.204Z,1.40
2023-01-03T18:40:30.375Z,1.38
2023-01-03T18:43:10.426Z,1.30
2023-01-03T18:45:41.251Z,1.30
2023-01-03T18:48:14.734Z,1.17
2023-01-03T18:50:43.387Z,1.50
2023-01-03T18:53:17.066Z,1.90
2023-01-03T18:55:45.493Z,1.50
2023-01-03T18:58:25.297Z,1.10
2023-01-03T19:00:54.952Z,1.27
2023-01-03T19:03:25.250Z,1.25
2023-01-03T19:05:55.516Z,1.02
2023-01-03T19:08:25.594Z,0.98
2023-01-03T19:13:29.372Z,1.25
2023-01-03T19:15:59.230Z,1.35
2023-01-03T19:18:27.937Z,1.38
2023-01-03T19:20:56.760Z,1.25
2023-01-03T19:23:27.614Z,1.50
2023-01-03T19:25:57.069Z,1.25
2023-01-03T19:28:28.988Z,1.40
2023-01-03T19:30:59.082Z,1.60
2023-01-03T19:33:28.159Z,1.45
2023-01-03T19:35:59.607Z,1.57
2023-01-03T19:38:28.199Z,1.30
2023-01-03T19:40:56.983Z,1.30
2023-01-03T19:43:25.536Z,1.33
2023-01-03T19:45:53.935Z,1.40
2023-01-03T19:48:26.434Z,1.38
2023-01-03T19:50:55.229Z,1.63
2023-01-03T19:53:23.955Z,1.85
2023-01-03T19:55:53.903Z,1.60
2023-01-03T20:00:54.264Z,1.83
2023-01-03T20:03:30.289Z,2.10
2023-01-03T20:05:59.845Z,2.42
2023-01-03T20:08:28.581Z,2.33
2023-01-03T20:10:56.968Z,2.30
2023-01-03T20:13:26.766Z,2.47
2023-01-03T20:16:00.514Z,3.38
2023-01-03T20:18:32.287Z,2.47
2023-01-03T20:21:01.881Z,2.95
2023-01-03T20:23:34.696Z,3.22
2023-01-03T20:26:03.047Z,2.40
2023-01-03T20:28:31.290Z,2.80
2023-01-03T20:31:00.419Z,2.58
2023-01-03T20:33:30.832Z,1.47
2023-01-03T20:36:12.588Z,1.10
2023-01-03T20:38:45.888Z,0.98
2023-01-03T20:41:15.541Z,0.90
2023-01-03T20:43:44.232Z,1.10
2023-01-03T20:46:18.476Z,1.00
2023-01-03T20:48:56.132Z,0.70
2023-01-03T20:51:26.328Z,0.80
2023-01-03T20:53:58.503Z,0.95
2023-01-03T20:56:27.468Z,0.80
2023-01-03T20:58:55.600Z,0.63
2023-01-03T21:01:23.785Z,0.70
2023-01-03T21:03:55.978Z,0.68
2023-01-03T21:06:26.894Z,0.43
2023-01-03T21:08:54.543Z,0.88
2023-01-03T21:11:25.031Z,0.60
2023-01-03T21:13:53.330Z,0.65
2023-01-03T21:16:30.299Z,0.73
2023-01-03T21:19:02.869Z,0.60
2023-01-03T21:21:32.493Z,0.95
2023-01-03T21:24:01.681Z,1.05
2023-01-03T21:26:30.077Z,1.07
2023-01-03T21:28:59.292Z,0.80
2023-01-03T21:31:27.875Z,0.70
2023-01-03T21:33:56.319Z,0.80
2023-01-03T21:36:27.977Z,0.70
2023-01-03T21:38:58.077Z,0.68
2023-01-03T21:41:28.679Z,0.70
2023-01-03T21:43:57.530Z,0.95
2023-01-03T21:46:26.876Z,0.80
2023-01-03T21:48:56.016Z,0.60
2023-01-03T21:51:39.931Z,0.77
2023-01-03T21:54:08.823Z,0.68
2023-01-03T21:56:46.044Z,0.63
2023-01-03T21:59:14.999Z,0.65
2023-01-03T22:02:01.753Z,0.55
2023-01-03T22:04:30.290Z,0.50
2023-01-03T22:07:01.944Z,0.70
2023-01-03T22:09:54.315Z,0.80
2023-01-03T22:12:23.119Z,0.70
2023-01-03T22:14:51.929Z,0.57
2023-01-03T22:17:20.525Z,0.80
2023-01-03T22:19:49.039Z,0.80
2023-01-03T22:22:18.784Z,0.85
2023-01-03T22:24:46.977Z,0.82
2023-01-03T22:27:15.404Z,0.70
2023-01-03T22:29:43.774Z,0.60
2023-01-03T22:32:12.301Z,0.50
2023-01-03T22:34:40.685Z,0.60
2023-01-03T22:37:09.102Z,0.75
2023-01-03T22:39:38.844Z,0.85
2023-01-03T22:42:07.047Z,0.57
2023-01-03T22:44:36.368Z,0.47
2023-01-03T22:47:05.303Z,0.47
2023-01-03T22:49:33.473Z,0.75
2023-01-03T22:52:01.991Z,0.57
2023-01-03T22:54:30.386Z,0.60
2023-01-03T22:56:59.877Z,0.57
2023-01-03T22:59:28.257Z,0.60
2023-01-03T23:01:56.891Z,0.73
2023-01-03T23:04:26.566Z,0.90
2023-01-03T23:06:55.252Z,0.50
2023-01-03T23:09:24.067Z,0.70
2023-01-03T23:12:10.139Z,0.65
2023-01-03T23:14:39.725Z,0.93
2023-01-03T23:17:25.368Z,0.50
2023-01-03T23:19:53.732Z,0.50
2023-01-03T23:22:22.150Z,0.60
2023-01-03T23:24:50.506Z,0.40
2023-01-03T23:27:18.643Z,0.47
2023-01-03T23:29:48.093Z,1.05
2023-01-03T23:32:16.682Z,0.70
2023-01-03T23:34:45.223Z,0.80
2023-01-03T23:37:13.674Z,0.60
2023-01-03T23:39:42.969Z,0.50
2023-01-03T23:42:11.151Z,0.50
2023-01-03T23:44:39.507Z,0.57
2023-01-03T23:47:12.083Z,0.70
2023-01-03T23:49:41.372Z,0.40
2023-01-03T23:52:10.061Z,0.70
2023-01-03T23:54:38.493Z,0.55
2023-01-03T23:57:06.910Z,0.50
2023-01-03T23:59:35.285Z,0.65
